createdAt,value
2022-07-25T00:03:07.082Z,18.20
2022-07-25T00:08:14.274Z,18.20
2022-07-25T00:13:21.174Z,18.10
2022-07-25T00:18:30.360Z,18.10
2022-07-25T00:23:33.733Z,18.00
2022-07-25T00:28:38.595Z,17.90
2022-07-25T00:33:42.003Z,17.90
2022-07-25T00:38:51.253Z,17.70
2022-07-25T00:43:56.226Z,17.50
2022-07-25T00:48:59.615Z,17.40
2022-07-25T00:54:04.371Z,17.30
2022-07-25T00:59:10.623Z,17.30
2022-07-25T01:04:23.336Z,17.20
2022-07-25T01:09:27.297Z,17.10
2022-07-25T01:14:37.700Z,17.10
2022-07-25T01:19:41.285Z,17.10
2022-07-25T01:24:48.125Z,17.10
2022-07-25T01:29:52.470Z,17.20
2022-07-25T01:34:56.996Z,17.20
2022-07-25T01:40:02.027Z,17.10
2022-07-25T01:45:12.834Z,17.10
2022-07-25T01:50:18.139Z,17.10
2022-07-25T01:55:22.982Z,17.00
2022-07-25T02:00:30.467Z,17.00
2022-07-25T02:05:33.877Z,16.80
2022-07-25T02:10:45.270Z,16.70
2022-07-25T02:15:56.524Z,16.70
2022-07-25T02:21:01.992Z,16.80
2022-07-25T02:26:06.729Z,16.90
2022-07-25T02:31:10.576Z,16.90
2022-07-25T02:36:13.880Z,16.90
2022-07-25T02:41:28.367Z,16.90
2022-07-25T02:46:34.266Z,16.70
2022-07-25T02:51:37.763Z,16.60
2022-07-25T02:56:42.501Z,16.50
2022-07-25T03:01:45.993Z,16.40
2022-07-25T03:06:53.401Z,16.30
2022-07-25T03:11:58.202Z,16.30
2022-07-25T03:17:01.693Z,16.40
2022-07-25T03:22:11.714Z,16.40
2022-07-25T03:27:17.843Z,16.40
2022-07-25T03:32:23.354Z,16.20
2022-07-25T03:37:27.806Z,16.10
2022-07-25T03:42:35.380Z,16.00
2022-07-25T03:47:40.121Z,15.90
2022-07-25T03:52:43.497Z,15.90
2022-07-25T03:57:48.326Z,15.90
2022-07-25T04:02:51.741Z,16.00
2022-07-25T04:07:55.059Z,16.00
2022-07-25T04:13:01.896Z,16.10
2022-07-25T04:18:05.370Z,16.20
2022-07-25T04:23:12.971Z,16.20
2022-07-25T04:28:17.857Z,16.40
2022-07-25T04:33:24.079Z,16.50
2022-07-25T04:38:27.494Z,16.60
2022-07-25T04:43:34.362Z,16.80
2022-07-25T04:48:37.884Z,17.00
2022-07-25T04:53:42.256Z,17.10
2022-07-25T04:58:47.192Z,17.30
2022-07-25T05:03:50.856Z,17.50
2022-07-25T05:08:54.384Z,17.70
2022-07-25T05:13:59.099Z,17.90
2022-07-25T05:19:06.784Z,18.20
2022-07-25T05:24:10.556Z,18.40
2022-07-25T05:29:15.378Z,18.60
2022-07-25T05:34:19.448Z,18.90
2022-07-25T05:39:22.821Z,19.00
2022-07-25T05:44:27.664Z,19.20
2022-07-25T05:49:31.182Z,19.30
2022-07-25T05:54:35.509Z,19.50
2022-07-25T05:59:40.194Z,19.70
2022-07-25T06:04:43.631Z,20.80
2022-07-25T06:09:47.110Z,26.10
2022-07-25T06:14:52.140Z,30.70
2022-07-25T06:19:55.760Z,33.90
2022-07-25T06:24:59.033Z,36.50
2022-07-25T06:30:18.638Z,35.60
2022-07-25T06:35:29.618Z,37.40
2022-07-25T06:40:33.004Z,39.40
2022-07-25T06:45:40.252Z,40.40
2022-07-25T06:50:46.882Z,40.10
2022-07-25T06:55:50.330Z,40.20
2022-07-25T07:00:56.203Z,40.10
2022-07-25T07:06:01.372Z,40.30
2022-07-25T07:11:07.847Z,40.40
2022-07-25T07:16:14.623Z,39.90
2022-07-25T07:21:21.340Z,40.60
2022-07-25T07:26:30.485Z,39.90
2022-07-25T07:31:35.228Z,39.90
2022-07-25T07:36:38.595Z,40.10
2022-07-25T07:41:41.827Z,40.70
2022-07-25T07:46:46.540Z,40.00
2022-07-25T07:51:57.130Z,39.60
2022-07-25T07:57:04.806Z,41.90
2022-07-25T08:02:09.606Z,42.30
2022-07-25T08:07:14.092Z,42.40
2022-07-25T08:12:24.323Z,42.10
2022-07-25T08:17:34.899Z,42.00
2022-07-25T08:22:41.504Z,41.40
2022-07-25T08:27:56.346Z,42.70
2022-07-25T08:33:03.651Z,42.60
2022-07-25T08:38:07.892Z,40.90
2022-07-25T08:43:14.165Z,41.30
2022-07-25T08:48:22.397Z,41.90
2022-07-25T08:53:34.854Z,41.40
2022-07-25T08:58:38.822Z,42.40
2022-07-25T09:03:44.862Z,42.30
2022-07-25T09:08:56.072Z,40.80
2022-07-25T09:14:00.904Z,41.80
2022-07-25T09:24:47.082Z,41.70
2022-07-25T09:29:50.544Z,40.70
2022-07-25T09:34:55.486Z,41.30
2022-07-25T09:39:58.889Z,42.10
2022-07-25T09:45:21.501Z,40.70
2022-07-25T09:50:29.432Z,41.10
2022-07-25T09:55:33.097Z,40.80
2022-07-25T10:00:37.829Z,40.40
2022-07-25T10:06:09.407Z,40.90
2022-07-25T10:11:31.796Z,40.40
2022-07-25T10:16:45.866Z,40.50
2022-07-25T10:21:58.396Z,39.80
2022-07-25T10:27:09.475Z,38.60
2022-07-25T10:32:14.937Z,38.60
2022-07-25T10:37:21.277Z,38.20
2022-07-25T10:42:26.814Z,38.10
2022-07-25T10:47:39.878Z,37.70
2022-07-25T10:53:09.546Z,37.20
2022-07-25T10:58:22.397Z,37.30
2022-07-25T11:03:27.504Z,37.00
2022-07-25T11:08:37.180Z,37.00
2022-07-25T11:13:43.026Z,37.20
2022-07-25T11:19:04.973Z,37.50
2022-07-25T11:24:10.542Z,37.80
2022-07-25T11:29:28.114Z,37.30
2022-07-25T11:34:55.187Z,37.60
2022-07-25T11:40:00.090Z,37.90
2022-07-25T11:45:30.000Z,37.70
2022-07-25T11:50:35.474Z,37.60
2022-07-25T11:55:42.629Z,37.80
2022-07-25T12:00:59.882Z,37.60
2022-07-25T12:06:10.095Z,37.90
2022-07-25T12:11:29.711Z,38.40
2022-07-25T12:16:36.009Z,38.00
2022-07-25T12:21:39.415Z,37.80
2022-07-25T12:26:45.413Z,37.50
2022-07-25T12:31:50.779Z,37.50
2022-07-25T12:37:15.282Z,37.30
2022-07-25T12:42:28.122Z,37.70
2022-07-25T12:47:43.051Z,37.80
2022-07-25T12:53:06.575Z,37.80
2022-07-25T12:58:26.931Z,37.80
2022-07-25T13:09:42.751Z,37.10
2022-07-25T13:14:47.540Z,36.00
2022-07-25T13:25:43.809Z,36.10
2022-07-25T13:30:51.702Z,36.70
2022-07-25T13:36:07.351Z,37.40
2022-07-25T13:41:39.463Z,37.80
2022-07-25T13:46:50.988Z,37.40
2022-07-25T13:52:00.526Z,35.80
2022-07-25T13:57:06.194Z,35.20
2022-07-25T14:02:11.432Z,35.30
2022-07-25T14:07:15.623Z,35.40
2022-07-25T14:12:18.946Z,34.80
2022-07-25T14:17:28.375Z,34.70
2022-07-25T14:22:33.656Z,35.00
2022-07-25T14:27:38.761Z,34.90
2022-07-25T14:32:43.884Z,34.70
2022-07-25T14:37:47.576Z,35.10
2022-07-25T14:42:51.173Z,35.90
2022-07-25T14:47:56.148Z,36.70
2022-07-25T14:53:01.000Z,36.30
2022-07-25T14:58:04.420Z,36.30
2022-07-25T15:03:09.795Z,35.70
2022-07-25T15:08:14.393Z,34.80
2022-07-25T15:13:34.185Z,34.30
2022-07-25T15:19:05.302Z,33.90
2022-07-25T15:24:06.396Z,33.90
2022-07-25T15:29:12.024Z,34.30
2022-07-25T15:34:17.172Z,33.80
2022-07-25T15:39:20.610Z,34.00
2022-07-25T15:44:27.571Z,34.30
2022-07-25T15:49:32.525Z,34.70
2022-07-25T15:54:36.098Z,34.00
2022-07-25T15:59:49.504Z,33.10
2022-07-25T16:04:54.527Z,33.00
2022-07-25T16:09:58.067Z,33.20
2022-07-25T16:15:01.743Z,32.80
2022-07-25T16:20:13.578Z,32.80
2022-07-25T16:25:17.796Z,32.10
2022-07-25T16:30:23.383Z,31.60
2022-07-25T16:35:29.143Z,31.50
2022-07-25T16:40:32.949Z,31.70
2022-07-25T16:45:42.571Z,31.50
2022-07-25T16:50:48.748Z,30.90
2022-07-25T16:55:52.256Z,30.30
2022-07-25T17:00:55.989Z,29.90
2022-07-25T17:06:01.285Z,29.70
2022-07-25T17:11:06.009Z,29.30
2022-07-25T17:16:10.498Z,29.40
2022-07-25T17:21:19.188Z,29.50
2022-07-25T17:26:25.411Z,29.50
2022-07-25T17:31:29.159Z,29.50
2022-07-25T17:36:33.839Z,29.50
2022-07-25T17:41:37.725Z,29.30
2022-07-25T17:46:41.275Z,29.20
2022-07-25T17:51:46.663Z,29.10
2022-07-25T17:56:50.577Z,28.80
2022-07-25T18:01:53.941Z,28.60
2022-07-25T18:06:59.408Z,28.40
2022-07-25T18:12:03.043Z,28.30
2022-07-25T18:17:07.402Z,28.20
2022-07-25T18:22:13.173Z,28.00
2022-07-25T18:27:16.568Z,27.70
2022-07-25T18:32:20.429Z,27.60
2022-07-25T18:37:25.791Z,27.40
2022-07-25T18:42:30.339Z,27.20
2022-07-25T18:47:35.198Z,27.20
2022-07-25T18:52:45.293Z,27.20
2022-07-25T18:57:48.879Z,26.90
2022-07-25T19:02:52.444Z,26.70
2022-07-25T19:07:59.744Z,26.50
2022-07-25T19:13:03.691Z,26.30
2022-07-25T19:18:07.982Z,26.10
2022-07-25T19:23:12.820Z,25.90
2022-07-25T19:28:16.336Z,25.80
2022-07-25T19:33:19.950Z,25.60
2022-07-25T19:38:27.770Z,25.50
2022-07-25T19:43:31.129Z,25.40
2022-07-25T19:48:38.389Z,25.20
2022-07-25T19:53:43.130Z,25.00
2022-07-25T19:58:46.337Z,24.90
2022-07-25T20:03:50.006Z,24.70
2022-07-25T20:08:55.475Z,24.70
2022-07-25T20:13:59.136Z,24.50
2022-07-25T20:19:02.666Z,24.30
2022-07-25T20:24:09.296Z,24.20
2022-07-25T20:29:12.646Z,24.10
2022-07-25T20:34:16.649Z,23.80
2022-07-25T20:39:24.270Z,23.60
2022-07-25T20:44:27.821Z,23.40
2022-07-25T20:49:31.341Z,23.30
2022-07-25T20:54:36.794Z,23.30
2022-07-25T20:59:40.001Z,23.10
2022-07-25T21:04:43.377Z,23.00
2022-07-25T21:09:48.154Z,22.90
2022-07-25T21:14:51.631Z,22.70
2022-07-25T21:19:55.036Z,22.50
2022-07-25T21:24:59.987Z,22.20
2022-07-25T21:30:04.775Z,21.90
2022-07-25T21:35:08.705Z,21.70
2022-07-25T21:40:13.873Z,21.60
2022-07-25T21:45:17.325Z,21.50
2022-07-25T21:50:43.803Z,21.30
2022-07-25T21:55:48.999Z,21.10
2022-07-25T22:00:53.997Z,21.00
2022-07-25T22:05:57.504Z,20.80
2022-07-25T22:11:15.593Z,20.60
2022-07-25T22:16:19.886Z,20.50
2022-07-25T22:21:23.231Z,20.10
2022-07-25T22:26:27.965Z,19.90
2022-07-25T22:31:31.500Z,19.90
2022-07-25T22:36:34.919Z,19.90
2022-07-25T22:41:39.686Z,20.00
2022-07-25T22:46:43.006Z,20.20
2022-07-25T22:51:46.296Z,20.10
2022-07-25T22:56:50.921Z,20.00
2022-07-25T23:01:54.510Z,19.70
2022-07-25T23:06:57.857Z,19.60
2022-07-25T23:12:02.532Z,19.70
2022-07-25T23:17:21.383Z,20.10
2022-07-25T23:22:26.357Z,20.50
2022-07-25T23:27:34.823Z,20.70
2022-07-25T23:32:38.412Z,20.70
2022-07-25T23:37:41.933Z,20.80
2022-07-25T23:42:46.658Z,20.80
2022-07-25T23:47:51.458Z,20.80
2022-07-25T23:52:56.279Z,20.80
2022-07-25T23:58:01.066Z,20.80
